Huntsville International Carl T Jones Field
KHSV : now visible

Airfield :











YOU CAN JOIN US ON...

 
LOGIN :

Register | Disclaimer

   EN    FR    IT 

 









Legend :    VFR   Marginal VFR   IFR   Intensive IFR   Very Intensive IFR
Visi :
Ceiling :
>= 8 km
>= 3000ft
5 to 8 km
1000 to 3000 ft
1500m to 5 km
500 to 1000 ft
800 to 1500m
200 to 500 ft
< 800m
< 200 ft
Symbols :   Thunderstorms  Fog  Heavy snow  Heavy precipitations  Wind > 20 kt






- Airport Elevation : 629 ft
- IATA code : HSV


KHSV - Huntsville International Carl T Jones Field

CURRENT METAR :
  • 070853Z AUTO 00000KT 10SM CLR 11/09 A3013 RMK AO2 SLP198 T01110094 53002

EXPIRED METARs :
  • 070753Z AUTO 00000KT 10SM CLR 12/11 A3013 RMK AO2 SLP197 T01220106
  • 070653Z AUTO 00000KT 10SM CLR 13/11 A3013 RMK AO2 SLP195 T01330106

TAF KHSV
Valid from the 07 at 06:00 until the 08 at 06:00 UTC


070520Z 0706/0806 36003KT P6SM SKC
FM071800 35009G15KT P6SM FEW250
FM080100 36006KT P6SM FEW250
KZME FIR / North America



MET'MAP, your aeronautical weather chart ! - Copyright ORBIFLY December 2007 - Disclaimer

ORBIFLY MET'MAP TEAM :

Programming & Development : Alexandra Zaïnal
Original concept : Baudouin d'Aumeries
Technical & hardware support : Manuel Goepfert
Assistance : Marc-Olivier Méhu




SOURCES & CREDITS :

   NOAA       Earth
Advisory